Time,TemperatureF,DewpointF,PressureIn,WindDirection,WindDirectionDegrees,WindSpeedMPH,WindSpeedGustMPH,Humidity,HourlyPrecipIn,Conditions,Clouds,dailyrainin,SolarRadiationWatts/m^2,SoftwareType,DateUTC
2013-04-10 00:10:00,76.1,66.0,29.83,South,188,5.0,-999.0,71,-99.99,,,0.00,0,weatherlink.com 1.10,2013-04-10 05:10:00,
2013-04-10 00:25:00,76.1,66.0,29.83,SSW,200,6.0,-999.0,71,-99.99,,,0.00,0,weatherlink.com 1.10,2013-04-10 05:25:00,
2013-04-10 00:40:00,75.9,66.0,29.82,SSE,168,5.0,-999.0,71,-99.99,,,0.00,0,weatherlink.com 1.10,2013-04-10 05:40:00,
2013-04-10 00:55:00,75.9,66.0,29.82,South,172,12.0,-999.0,71,-99.99,,,0.00,0,weatherlink.com 1.10,2013-04-10 05:55:00,
2013-04-10 01:10:00,76.0,66.0,29.81,SSE,166,6.0,-999.0,71,-99.99,,,0.00,0,weatherlink.com 1.10,2013-04-10 06:10:00,
2013-04-10 01:25:00,76.0,66.0,29.81,South,187,4.0,-999.0,71,-99.99,,,0.00,0,weatherlink.com 1.10,2013-04-10 06:25:00,
2013-04-10 01:40:00,75.6,66.0,29.81,South,170,4.0,-999.0,72,-99.99,,,0.00,0,weatherlink.com 1.10,2013-04-10 06:40:00,
2013-04-10 01:55:00,75.5,66.0,29.80,South,169,8.0,-999.0,72,-99.99,,,0.00,0,weatherlink.com 1.10,2013-04-10 06:55:00,
2013-04-10 02:10:00,75.3,66.0,29.80,South,189,5.0,-999.0,73,-99.99,,,0.00,0,weatherlink.com 1.10,2013-04-10 07:10:00,
2013-04-10 02:25:00,74.9,66.0,29.80,South,178,6.0,-999.0,73,-99.99,,,0.00,0,weatherlink.com 1.10,2013-04-10 07:25:00,
2013-04-10 02:40:00,75.1,66.0,29.79,South,188,5.0,-999.0,73,-99.99,,,0.00,0,weatherlink.com 1.10,2013-04-10 07:40:00,
2013-04-10 02:55:00,74.9,66.0,29.80,South,184,2.0,-999.0,73,-99.99,,,0.00,0,weatherlink.com 1.10,2013-04-10 07:55:00,
2013-04-10 03:10:00,74.9,66.0,29.80,SSW,206,7.0,-999.0,73,-99.99,,,0.00,0,weatherlink.com 1.10,2013-04-10 08:10:00,
2013-04-10 03:25:00,74.8,66.0,29.80,SSW,205,9.0,-999.0,73,-99.99,,,0.00,0,weatherlink.com 1.10,2013-04-10 08:25:00,
2013-04-10 03:40:00,74.8,65.0,29.80,SSW,192,4.0,-999.0,72,-99.99,,,0.00,0,weatherlink.com 1.10,2013-04-10 08:40:00,
2013-04-10 03:55:00,74.7,66.0,29.81,South,180,6.0,-999.0,73,-99.99,,,0.00,0,weatherlink.com 1.10,2013-04-10 08:55:00,
2013-04-10 04:10:00,74.4,65.0,29.81,SSE,163,6.0,-999.0,73,-99.99,,,0.00,0,weatherlink.com 1.10,2013-04-10 09:10:00,
2013-04-10 04:26:00,74.2,65.0,29.81,South,174,0.0,-999.0,74,-99.99,,,0.00,0,weatherlink.com 1.10,2013-04-10 09:26:00,
2013-04-10 04:41:00,74.1,65.0,29.82,South,178,0.0,-999.0,74,-99.99,,,0.00,0,weatherlink.com 1.10,2013-04-10 09:41:00,
2013-04-10 04:56:00,74.1,66.0,29.82,SSW,206,0.0,-999.0,75,-99.99,,,0.00,0,weatherlink.com 1.10,2013-04-10 09:56:00,
2013-04-10 05:11:00,74.0,66.0,29.82,South,172,2.0,-999.0,75,-99.99,,,0.00,0,weatherlink.com 1.10,2013-04-10 10:11:00,
2013-04-10 05:26:00,73.8,66.0,29.83,South,173,0.0,-999.0,76,-99.99,,,0.00,0,weatherlink.com 1.10,2013-04-10 10:26:00,
2013-04-10 05:41:00,73.6,66.0,29.82,SSE,157,0.0,-999.0,76,-99.99,,,0.00,0,weatherlink.com 1.10,2013-04-10 10:41:00,
2013-04-10 05:56:00,73.3,65.0,29.81,SSE,163,2.0,-999.0,76,-99.99,,,0.00,0,weatherlink.com 1.10,2013-04-10 10:56:00,
2013-04-10 06:11:00,73.1,66.0,29.82,SSE,167,5.0,-999.0,77,-99.99,,,0.00,0,weatherlink.com 1.10,2013-04-10 11:11:00,
2013-04-10 06:26:00,72.8,66.0,29.82,SSE,161,2.0,-999.0,78,-99.99,,,0.00,0,weatherlink.com 1.10,2013-04-10 11:26:00,
2013-04-10 06:41:00,72.5,65.0,29.82,SSE,168,0.0,-999.0,78,-99.99,,,0.00,0,weatherlink.com 1.10,2013-04-10 11:41:00,
2013-04-10 06:56:00,72.4,66.0,29.82,South,170,2.0,-999.0,79,-99.99,,,0.00,12,weatherlink.com 1.10,2013-04-10 11:56:00,
2013-04-10 07:11:00,72.6,65.0,29.84,SSE,165,2.0,-999.0,78,-99.99,,,0.00,7,weatherlink.com 1.10,2013-04-10 12:11:00,
2013-04-10 07:26:00,72.6,66.0,29.84,South,172,6.0,-999.0,79,-99.99,,,0.00,33,weatherlink.com 1.10,2013-04-10 12:26:00,
2013-04-10 07:41:00,72.7,66.0,29.85,South,170,0.0,-999.0,79,-99.99,,,0.00,23,weatherlink.com 1.10,2013-04-10 12:41:00,
2013-04-10 07:56:00,72.6,66.0,29.84,South,170,5.0,-999.0,79,-99.99,,,0.00,49,weatherlink.com 1.10,2013-04-10 12:56:00,
2013-04-10 08:11:00,72.7,66.0,29.83,SSE,148,5.0,-999.0,79,-99.99,,,0.00,123,weatherlink.com 1.10,2013-04-10 13:11:00,
2013-04-10 08:26:00,73.3,66.0,29.83,SSE,155,4.0,-999.0,78,-99.99,,,0.00,102,weatherlink.com 1.10,2013-04-10 13:26:00,
2013-04-10 08:41:00,73.7,66.0,29.84,SSE,157,0.0,-999.0,77,-99.99,,,0.00,120,weatherlink.com 1.10,2013-04-10 13:41:00,
2013-04-10 08:57:00,74.2,66.0,29.85,SSE,165,4.0,-999.0,76,-99.99,,,0.00,120,weatherlink.com 1.10,2013-04-10 13:57:00,
2013-04-10 09:11:00,74.8,66.0,29.84,SSE,167,2.0,-999.0,75,-99.99,,,0.00,192,weatherlink.com 1.10,2013-04-10 14:11:00,
2013-04-10 09:26:00,75.3,67.0,29.83,SSE,152,5.0,-999.0,74,-99.99,,,0.00,188,weatherlink.com 1.10,2013-04-10 14:26:00,
2013-04-10 09:41:00,75.4,66.0,29.82,SSW,198,12.0,-999.0,73,-99.99,,,0.00,153,weatherlink.com 1.10,2013-04-10 14:41:00,
2013-04-10 09:57:00,76.2,66.0,29.82,South,186,4.0,-999.0,71,-99.99,,,0.00,510,weatherlink.com 1.10,2013-04-10 14:57:00,
2013-04-10 10:12:00,78.2,66.0,29.82,SSE,160,7.0,-999.0,67,-99.99,,,0.00,582,weatherlink.com 1.10,2013-04-10 15:12:00,
2013-04-10 10:27:00,78.8,66.0,29.82,South,184,4.0,-999.0,66,-99.99,,,0.00,283,weatherlink.com 1.10,2013-04-10 15:27:00,
2013-04-10 10:42:00,79.6,66.0,29.82,South,188,5.0,-999.0,63,-99.99,,,0.00,225,weatherlink.com 1.10,2013-04-10 15:42:00,
2013-04-10 10:57:00,78.9,66.0,29.82,SSW,201,3.0,-999.0,65,-99.99,,,0.00,367,weatherlink.com 1.10,2013-04-10 15:57:00,
2013-04-10 11:27:00,78.8,65.0,29.81,SW,221,10.0,-999.0,62,-99.99,,,0.00,244,weatherlink.com 1.10,2013-04-10 16:27:00,
2013-04-10 11:42:00,79.9,66.0,29.81,South,185,5.0,-999.0,62,-99.99,,,0.00,810,weatherlink.com 1.10,2013-04-10 16:42:00,
2013-04-10 11:57:00,80.9,65.0,29.80,SSW,198,0.0,-999.0,59,-99.99,,,0.00,306,weatherlink.com 1.10,2013-04-10 16:57:00,
2013-04-10 12:12:00,81.4,66.0,29.79,SW,225,8.0,-999.0,60,-99.99,,,0.00,939,weatherlink.com 1.10,2013-04-10 17:12:00,
2013-04-10 12:27:00,83.0,65.0,29.79,SSE,166,10.0,-999.0,54,-99.99,,,0.00,229,weatherlink.com 1.10,2013-04-10 17:27:00,
2013-04-10 12:42:00,81.6,65.0,29.78,South,182,2.0,-999.0,58,-99.99,,,0.00,415,weatherlink.com 1.10,2013-04-10 17:42:00,
2013-04-10 12:57:00,82.3,65.0,29.77,South,178,11.0,-999.0,56,-99.99,,,0.00,255,weatherlink.com 1.10,2013-04-10 17:57:00,
2013-04-10 13:12:00,82.6,65.0,29.77,South,169,5.0,-999.0,55,-99.99,,,0.00,353,weatherlink.com 1.10,2013-04-10 18:12:00,
2013-04-10 13:27:00,83.4,64.0,29.76,SSE,151,13.0,-999.0,53,-99.99,,,0.00,814,weatherlink.com 1.10,2013-04-10 18:27:00,
2013-04-10 13:42:00,83.1,65.0,29.75,SSW,198,4.0,-999.0,54,-99.99,,,0.00,306,weatherlink.com 1.10,2013-04-10 18:42:00,
2013-04-10 13:57:00,82.3,64.0,29.75,South,180,9.0,-999.0,54,-99.99,,,0.00,135,weatherlink.com 1.10,2013-04-10 18:57:00,
2013-04-10 14:12:00,82.2,65.0,29.74,SSW,205,8.0,-999.0,56,-99.99,,,0.00,664,weatherlink.com 1.10,2013-04-10 19:12:00,
2013-04-10 14:27:00,82.4,65.0,29.73,SSE,167,6.0,-999.0,55,-99.99,,,0.00,424,weatherlink.com 1.10,2013-04-10 19:27:00,
2013-04-10 14:42:00,83.0,66.0,29.71,SE,129,6.0,-999.0,56,-99.99,,,0.00,320,weatherlink.com 1.10,2013-04-10 19:42:00,
2013-04-10 14:57:00,83.8,65.0,29.70,SSE,164,17.0,-999.0,54,-99.99,,,0.00,362,weatherlink.com 1.10,2013-04-10 19:57:00,
2013-04-10 15:12:00,83.9,66.0,29.69,SE,140,8.0,-999.0,55,-99.99,,,0.00,267,weatherlink.com 1.10,2013-04-10 20:12:00,
2013-04-10 15:27:00,82.2,66.0,29.69,SSE,156,8.0,-999.0,58,-99.99,,,0.00,343,weatherlink.com 1.10,2013-04-10 20:27:00,
2013-04-10 15:42:00,81.7,66.0,29.68,SSE,150,7.0,-999.0,59,-99.99,,,0.00,111,weatherlink.com 1.10,2013-04-10 20:42:00,
2013-04-10 15:57:00,80.0,66.0,29.67,SE,139,7.0,-999.0,62,-99.99,,,0.00,70,weatherlink.com 1.10,2013-04-10 20:57:00,
2013-04-10 16:12:00,78.7,66.0,29.66,South,180,6.0,-999.0,65,-99.99,,,0.00,67,weatherlink.com 1.10,2013-04-10 21:12:00,
2013-04-10 16:27:00,78.2,66.0,29.64,South,186,4.0,-999.0,66,-99.99,,,0.00,135,weatherlink.com 1.10,2013-04-10 21:27:00,
2013-04-10 16:42:00,76.3,67.0,29.64,SSE,156,6.0,-999.0,72,-99.99,,,0.00,53,weatherlink.com 1.10,2013-04-10 21:42:00,
2013-04-10 16:57:00,74.4,67.0,29.66,SSE,152,6.0,-999.0,78,-99.99,,,0.00,12,weatherlink.com 1.10,2013-04-10 21:57:00,
2013-04-10 17:12:00,73.8,68.0,29.66,SSW,193,11.0,-999.0,81,-99.99,,,0.00,0,weatherlink.com 1.10,2013-04-10 22:12:00,
2013-04-10 17:27:00,72.6,68.0,29.68,South,173,5.0,-999.0,84,-99.99,,,0.00,0,weatherlink.com 1.10,2013-04-10 22:27:00,
2013-04-10 17:42:00,70.4,66.0,29.70,SW,223,8.0,-999.0,85,-99.99,,,0.13,0,weatherlink.com 1.10,2013-04-10 22:42:00,
2013-04-10 17:58:00,56.8,52.0,29.73,NW,307,8.0,-999.0,85,-99.99,,,0.21,0,weatherlink.com 1.10,2013-04-10 22:58:00,
2013-04-10 18:12:00,51.0,48.0,29.76,NW,317,10.0,-999.0,88,-99.99,,,0.28,0,weatherlink.com 1.10,2013-04-10 23:12:00,
2013-04-10 18:27:00,49.8,48.0,29.74,WNW,292,8.0,-999.0,92,-99.99,,,0.30,0,weatherlink.com 1.10,2013-04-10 23:27:00,
2013-04-10 18:42:00,50.0,48.0,29.73,NW,313,7.0,-999.0,93,-99.99,,,0.33,0,weatherlink.com 1.10,2013-04-10 23:42:00,
2013-04-10 18:57:00,50.5,49.0,29.76,NW,307,7.0,-999.0,94,-99.99,,,0.42,0,weatherlink.com 1.10,2013-04-10 23:57:00,
2013-04-10 19:12:00,51.0,49.0,29.77,West,273,6.0,-999.0,94,-99.99,,,0.51,0,weatherlink.com 1.10,2013-04-11 00:12:00,
2013-04-10 19:27:00,50.6,49.0,29.72,NW,310,1.0,-999.0,94,-99.99,,,0.59,0,weatherlink.com 1.10,2013-04-11 00:27:00,
2013-04-10 19:42:00,51.2,50.0,29.72,NW,310,5.0,-999.0,95,-99.99,,,0.63,0,weatherlink.com 1.10,2013-04-11 00:42:00,
2013-04-10 19:57:00,50.9,49.0,29.73,NW,304,4.0,-999.0,94,-99.99,,,0.64,0,weatherlink.com 1.10,2013-04-11 00:57:00,
2013-04-10 20:12:00,50.1,49.0,29.73,WNW,302,1.0,-999.0,95,-99.99,,,0.64,0,weatherlink.com 1.10,2013-04-11 01:12:00,
2013-04-10 20:27:00,49.9,49.0,29.73,WNW,298,4.0,-999.0,95,-99.99,,,0.64,0,weatherlink.com 1.10,2013-04-11 01:27:00,
2013-04-10 20:42:00,49.6,48.0,29.73,WNW,298,0.0,-999.0,95,-99.99,,,0.65,0,weatherlink.com 1.10,2013-04-11 01:42:00,
2013-04-10 20:57:00,49.6,48.0,29.76,WNW,293,6.0,-999.0,95,-99.99,,,0.65,0,weatherlink.com 1.10,2013-04-11 01:57:00,
2013-04-10 21:12:00,48.7,47.0,29.77,West,263,0.0,-999.0,95,-99.99,,,0.65,0,weatherlink.com 1.10,2013-04-11 02:12:00,
2013-04-10 21:27:00,47.7,46.0,29.78,WSW,258,10.0,-999.0,94,-99.99,,,0.65,0,weatherlink.com 1.10,2013-04-11 02:27:00,
2013-04-10 21:42:00,46.1,45.0,29.75,West,267,11.0,-999.0,94,-99.99,,,0.65,0,weatherlink.com 1.10,2013-04-11 02:42:00,
2013-04-10 21:58:00,45.1,44.0,29.77,WNW,302,12.0,-999.0,95,-99.99,,,0.65,0,weatherlink.com 1.10,2013-04-11 02:58:00,
2013-04-10 22:13:00,44.5,43.0,29.79,NW,316,17.0,-999.0,95,-99.99,,,0.65,0,weatherlink.com 1.10,2013-04-11 03:13:00,
2013-04-10 22:43:00,44.3,43.0,29.82,West,270,8.0,-999.0,95,-99.99,,,0.65,0,weatherlink.com 1.10,2013-04-11 03:43:00,
2013-04-10 22:58:00,43.9,43.0,29.83,NW,307,8.0,-999.0,95,-99.99,,,0.65,0,weatherlink.com 1.10,2013-04-11 03:58:00,
2013-04-10 23:13:00,43.6,42.0,29.84,WNW,296,7.0,-999.0,95,-99.99,,,0.65,0,weatherlink.com 1.10,2013-04-11 04:13:00,
2013-04-10 23:28:00,43.4,42.0,29.85,NW,319,8.0,-999.0,94,-99.99,,,0.65,0,weatherlink.com 1.10,2013-04-11 04:28:00,
2013-04-10 23:43:00,43.0,41.0,29.85,WNW,300,6.0,-999.0,94,-99.99,,,0.65,0,weatherlink.com 1.10,2013-04-11 04:43:00,
2013-04-10 23:58:00,43.0,41.0,29.86,WNW,296,6.0,-999.0,94,-99.99,,,0.65,0,weatherlink.com 1.10,2013-04-11 04:58:00,